Time;durP1;ratioP1;P1;durP2;ratioP2;P2;SDS_P1;SDS_P2;PMS_P1;PMS_P2;Temp;Humidity;BMP_temperature;BMP_pressure;BME280_temperature;BME280_humidity;BME280_pressure;Samples;Min_cycle;Max_cycle;Signal;HPM_P1;HPM_P2
2023/05/17 00:00:22;;;;;;;14.00;12.60;;;;;;;11.81;73.09;100424.45;109373;1273;23729;-85
2023/05/17 00:03:18;;;;;;;16.50;12.50;;;;;;;11.80;73.20;100421.71;109529;1273;23715;-84
2023/05/17 00:05:52;;;;;;;12.30;10.90;;;;;;;11.82;73.13;100421.46;109533;1273;21986;-86
2023/05/17 00:08:30;;;;;;;13.30;11.00;;;;;;;11.82;72.98;100420.58;109337;1271;21996;-86
2023/05/17 00:11:32;;;;;;;13.20;10.80;;;;;;;11.79;73.09;100415.83;109582;1272;21986;-85
2023/05/17 00:14:03;;;;;;;11.20;10.00;;;;;;;11.80;73.15;100416.34;109763;1272;23621;-86
2023/05/17 00:16:40;;;;;;;14.30;11.10;;;;;;;11.81;73.10;100416.29;109558;1270;22742;-85
2023/05/17 00:19:11;;;;;;;15.30;10.90;;;;;;;11.79;72.95;100410.43;109183;1279;22011;-85
2023/05/17 00:21:42;;;;;;;12.90;11.60;;;;;;;11.78;72.86;100405.25;109079;1279;23046;-84
2023/05/17 00:24:13;;;;;;;15.50;11.90;;;;;;;11.75;73.06;100404.66;109004;1274;22373;-85
2023/05/17 00:26:43;;;;;;;13.50;12.20;;;;;;;11.74;73.12;100406.80;108703;1286;22774;-87
2023/05/17 00:29:19;;;;;;;16.20;14.20;;;;;;;11.73;72.90;100411.36;108631;1286;22418;-83
2023/05/17 00:31:53;;;;;;;14.40;12.90;;;;;;;11.73;73.18;100408.42;108679;1286;23728;-85
2023/05/17 00:34:24;;;;;;;16.00;14.40;;;;;;;11.73;73.21;100407.71;108606;1286;23075;-86
2023/05/17 00:36:58;;;;;;;14.70;12.90;;;;;;;11.73;73.19;100415.57;108286;1279;437316;-85
2023/05/17 00:39:28;;;;;;;17.10;13.80;;;;;;;11.72;73.21;100419.96;108638;1286;23804;-85
2023/05/17 00:42:01;;;;;;;14.80;13.30;;;;;;;11.73;73.29;100421.67;108680;1286;21963;-84
2023/05/17 00:44:32;;;;;;;;;;;;;;;11.73;73.36;100424.77;109089;1272;22899;-85
2023/05/17 00:47:14;;;;;;;15.70;13.90;;;;;;;11.65;73.51;100422.51;109425;1277;23715;-83
2023/05/17 00:49:47;;;;;;;19.30;15.20;;;;;;;11.65;73.46;100421.64;109210;1277;22001;-86
2023/05/17 00:52:18;;;;;;;15.60;13.70;;;;;;;11.69;73.52;100419.05;109078;1277;22039;-85
2023/05/17 00:54:50;;;;;;;16.00;14.40;;;;;;;11.71;73.53;100417.89;109320;1277;22022;-84
2023/05/17 00:57:27;;;;;;;16.10;14.30;;;;;;;11.71;73.46;100420.69;108908;1281;22005;-85
2023/05/17 01:00:03;;;;;;;17.90;16.00;;;;;;;11.75;73.49;100422.13;108656;1286;23072;-86
2023/05/17 01:02:34;;;;;;;17.20;15.60;;;;;;;11.76;73.40;100422.58;108676;1280;22753;-84
2023/05/17 01:05:18;;;;;;;16.00;14.40;;;;;;;11.76;73.42;100418.76;108658;1285;23688;-84
2023/05/17 01:07:49;;;;;;;17.20;15.70;;;;;;;11.76;73.54;100410.73;108649;1285;22098;-84
2023/05/17 01:10:21;;;;;;;17.40;15.60;;;;;;;11.76;73.45;100410.71;108656;1285;21998;-83
2023/05/17 01:13:16;;;;;;;18.40;15.90;;;;;;;11.78;73.54;100414.84;108640;1284;23007;-84
2023/05/17 01:16:01;;;;;;;18.30;16.40;;;;;;;11.76;73.60;100426.77;108811;1284;21989;-86
2023/05/17 01:19:00;;;;;;;15.10;13.60;;;;;;;11.74;73.60;100432.61;108828;1283;22001;-86
2023/05/17 01:21:45;;;;;;;17.10;15.40;;;;;;;11.71;73.76;100431.48;109005;1280;22000;-86
2023/05/17 01:24:38;;;;;;;15.30;13.90;;;;;;;11.72;73.76;100429.20;108868;1283;23807;-83
2023/05/17 01:27:11;;;;;;;16.50;14.80;;;;;;;11.69;73.74;100432.98;108920;1283;21995;-85
2023/05/17 01:29:52;;;;;;;17.40;15.70;;;;;;;11.67;73.67;100439.53;108790;1285;22870;-86
2023/05/17 01:32:27;;;;;;;16.60;15.10;;;;;;;11.66;73.72;100437.30;108761;1283;22000;-84
2023/05/17 01:34:57;;;;;;;17.50;15.50;;;;;;;11.68;73.77;100432.68;108906;1282;23132;-88
2023/05/17 01:37:31;;;;;;;19.70;15.10;;;;;;;11.68;73.80;100429.53;109225;1278;21986;-85
2023/05/17 01:40:03;;;;;;;19.50;16.30;;;;;;;11.68;73.68;100425.36;109284;1278;22085;-85
2023/05/17 01:42:59;;;;;;;16.20;14.20;;;;;;;11.65;73.64;100427.56;109320;1273;21986;-86
2023/05/17 01:46:20;;;;;;;15.60;14.10;;;;;;;11.64;73.82;100437.54;109736;1273;21987;-85
2023/05/17 01:49:26;;;;;;;18.30;14.30;;;;;;;11.64;73.84;100442.08;109353;1278;23611;-86
2023/05/17 01:52:17;;;;;;;16.30;14.50;;;;;;;11.63;73.70;100438.44;109230;1278;21991;-85
2023/05/17 01:55:31;;;;;;;15.90;14.40;;;;;;;11.60;73.80;100432.31;109309;1278;23644;-85
2023/05/17 01:58:14;;;;;;;16.00;14.60;;;;;;;11.60;74.05;100441.73;108912;1283;22960;-83
2023/05/17 02:00:49;;;;;;;19.70;15.30;;;;;;;11.63;73.84;100444.23;108805;1284;22001;-86
2023/05/17 02:03:28;;;;;;;18.30;15.40;;;;;;;11.65;73.84;100445.89;108943;1281;22050;-86
2023/05/17 02:05:58;;;;;;;17.10;15.40;;;;;;;11.68;73.95;100451.68;108925;1283;22051;-86
2023/05/17 02:08:43;;;;;;;17.40;15.60;;;;;;;11.68;73.69;100453.39;108869;1284;22658;-85
2023/05/17 02:11:14;;;;;;;15.70;14.40;;;;;;;11.66;73.64;100455.73;108877;1283;24356;-85
2023/05/17 02:13:45;;;;;;;16.70;14.90;;;;;;;11.65;73.57;100456.14;108861;1283;23735;-83
2023/05/17 02:16:16;;;;;;;18.90;17.00;;;;;;;11.65;73.61;100457.02;108851;1283;23615;-84
2023/05/17 02:18:46;;;;;;;20.10;17.30;;;;;;;11.64;73.75;100459.68;108572;1288;23728;-83
2023/05/17 02:21:17;;;;;;;19.70;17.70;;;;;;;11.62;73.71;100461.15;108561;1288;22000;-83
2023/05/17 02:23:47;;;;;;;18.40;16.60;;;;;;;11.62;73.74;100460.98;108078;1292;22022;-87
2023/05/17 02:26:21;;;;;;;20.20;18.30;;;;;;;11.62;73.82;100467.28;108389;1290;23522;-85
2023/05/17 02:29:02;;;;;;;21.80;19.60;;;;;;;11.63;73.77;100472.27;108526;1290;22051;-86
2023/05/17 02:31:41;;;;;;;22.10;19.90;;;;;;;11.65;73.94;100472.02;108451;1289;22015;-84
2023/05/17 02:34:17;;;;;;;22.20;19.90;;;;;;;11.66;73.72;100471.64;108070;1289;22347;-84
2023/05/17 02:36:54;;;;;;;21.90;19.60;;;;;;;11.66;73.90;100469.86;108688;1282;21995;-83
2023/05/17 02:39:24;;;;;;;20.70;18.60;;;;;;;11.68;74.01;100467.54;108611;1288;23645;-82
2023/05/17 02:41:54;;;;;;;19.10;17.30;;;;;;;11.70;74.00;100469.89;108702;1283;22423;-84
2023/05/17 02:44:26;;;;;;;20.00;17.90;;;;;;;11.70;74.04;100468.84;108721;1283;22088;-85
2023/05/17 02:47:00;;;;;;;19.10;17.50;;;;;;;11.68;74.03;100468.05;108816;1283;21992;-84
2023/05/17 02:49:49;;;;;;;22.60;18.30;;;;;;;11.64;74.02;100469.23;108931;1282;21992;-84
2023/05/17 02:52:20;;;;;;;20.30;18.40;;;;;;;11.61;74.07;100468.00;108705;1282;23725;-86
2023/05/17 02:54:55;;;;;;;25.20;21.90;;;;;;;11.58;74.03;100470.20;108815;1282;22487;-83
2023/05/17 02:57:28;;;;;;;23.20;21.10;;;;;;;11.57;74.02;100474.42;108960;1278;23612;-84
2023/05/17 03:00:01;;;;;;;22.20;19.90;;;;;;;11.56;74.08;100475.71;109057;1278;22741;-83
2023/05/17 03:02:38;;;;;;;21.80;19.80;;;;;;;11.52;74.08;100474.09;108936;1283;23042;-84
2023/05/17 03:05:16;;;;;;;23.30;21.00;;;;;;;11.52;74.25;100476.53;108859;1282;22001;-84
2023/05/17 03:07:56;;;;;;;26.70;23.50;;;;;;;11.53;74.35;100473.18;108433;1286;22411;-83
2023/05/17 03:10:36;;;;;;;23.50;21.20;;;;;;;11.54;74.45;100470.89;108543;1285;22457;-83
2023/05/17 03:13:13;;;;;;;21.50;19.50;;;;;;;11.55;74.41;100470.14;108516;1285;22027;-82
2023/05/17 03:15:44;;;;;;;23.10;20.90;;;;;;;11.55;74.31;100472.23;108701;1285;23660;-81
2023/05/17 03:18:15;;;;;;;24.20;21.90;;;;;;;11.56;74.53;100476.05;108713;1286;22048;-82
2023/05/17 03:20:52;;;;;;;24.50;22.10;;;;;;;11.54;74.39;100477.85;108448;1287;23097;-80
2023/05/17 03:23:23;;;;;;;23.30;21.10;;;;;;;11.54;74.48;100477.52;108558;1287;21800;-84
2023/05/17 03:26:01;;;;;;;52.70;47.90;;;;;;;11.53;74.49;100481.73;108583;1287;22732;-84
2023/05/17 03:28:43;;;;;;;37.70;34.30;;;;;;;11.52;74.49;100483.00;108476;1287;22862;-86
2023/05/17 03:31:21;;;;;;;49.30;44.60;;;;;;;11.52;74.51;100483.88;108370;1289;22238;-85
2023/05/17 03:33:51;;;;;;;35.60;32.20;;;;;;;11.51;74.22;100487.91;108472;1289;22485;-86
2023/05/17 03:36:22;;;;;;;31.20;28.30;;;;;;;11.51;74.42;100491.24;108582;1289;21833;-85
2023/05/17 03:38:52;;;;;;;27.90;25.30;;;;;;;11.50;74.43;100491.95;108689;1284;22007;-84
2023/05/17 03:41:23;;;;;;;28.10;25.40;;;;;;;11.52;74.51;100495.00;108683;1285;24433;-86
2023/05/17 03:43:55;;;;;;;27.20;24.40;;;;;;;11.54;74.56;100497.39;108903;1285;24086;-85
2023/05/17 03:46:26;;;;;;;30.50;27.30;;;;;;;11.54;74.57;100497.02;108925;1281;23718;-84
2023/05/17 03:48:57;;;;;;;29.70;26.70;;;;;;;11.55;74.48;100497.02;109092;1275;21999;-84
2023/05/17 03:51:27;;;;;;;30.90;27.70;;;;;;;11.53;74.37;100499.34;109278;1275;21997;-87
2023/05/17 03:54:00;;;;;;;29.80;27.20;;;;;;;11.51;74.31;100504.29;109503;1275;22079;-87
2023/05/17 03:56:35;;;;;;;31.70;28.60;;;;;;;11.48;74.32;100511.39;109453;1275;21990;-83
2023/05/17 03:59:08;;;;;;;30.80;27.70;;;;;;;11.48;74.44;100513.47;109437;1272;21978;-85
2023/05/17 04:01:48;;;;;;;29.50;26.70;;;;;;;11.49;74.41;100520.23;109709;1272;22043;-84
2023/05/17 04:04:23;;;;;;;29.00;26.30;;;;;;;11.49;74.49;100521.63;109322;1276;21982;-85
2023/05/17 04:06:56;;;;;;;27.80;25.20;;;;;;;11.49;74.37;100520.93;109263;1277;22060;-86
2023/05/17 04:09:33;;;;;;;28.60;25.60;;;;;;;11.49;74.51;100520.92;109299;1277;21997;-85
2023/05/17 04:12:05;;;;;;;26.70;24.10;;;;;;;11.50;74.38;100525.26;109175;1277;22143;-85
2023/05/17 04:14:41;;;;;;;29.80;26.20;;;;;;;11.51;74.27;100528.51;109247;1277;23005;-84
2023/05/17 04:17:14;;;;;;;28.40;25.40;;;;;;;11.50;74.38;100529.61;109037;1277;21969;-81
2023/05/17 04:19:55;;;;;;;26.10;23.40;;;;;;;11.50;74.23;100530.46;109283;1277;21993;-81
2023/05/17 04:22:27;;;;;;;26.50;20.00;;;;;;;11.48;74.30;100532.48;108981;1279;22003;-83
2023/05/17 04:25:00;;;;;;;18.20;16.50;;;;;;;11.51;74.23;100532.52;109233;1280;22011;-83
2023/05/17 04:27:31;;;;;;;17.90;15.10;;;;;;;11.52;74.19;100533.70;108999;1283;23619;-83
2023/05/17 04:30:04;;;;;;;16.30;14.40;;;;;;;11.51;73.87;100534.44;109033;1283;21948;-83
2023/05/17 04:32:37;;;;;;;17.80;12.40;;;;;;;11.48;73.68;100535.93;108745;1286;22063;-84
2023/05/17 04:35:10;;;;;;;15.30;12.30;;;;;;;11.49;73.68;100531.57;108447;1290;21994;-81
2023/05/17 04:37:47;;;;;;;13.80;11.50;;;;;;;11.49;73.33;100532.78;108665;1290;22016;-81
2023/05/17 04:40:28;;;;;;;16.30;11.70;;;;;;;11.47;73.09;100539.48;108536;1287;21981;-81
2023/05/17 04:43:06;;;;;;;11.60;10.20;;;;;;;11.46;72.88;100542.30;108691;1287;22024;-79
2023/05/17 04:45:45;;;;;;;14.90;11.90;;;;;;;11.49;72.89;100539.39;108478;1283;22850;-79
2023/05/17 04:48:19;;;;;;;16.60;12.20;;;;;;;11.51;72.65;100541.27;108847;1277;23054;-79
2023/05/17 04:50:53;;;;;;;21.20;14.30;;;;;;;11.53;72.40;100540.65;108591;1285;22417;-81
2023/05/17 04:53:27;;;;;;;18.40;14.40;;;;;;;11.56;72.19;100537.92;108548;1280;23068;-78
2023/05/17 04:56:05;;;;;;;17.30;13.60;;;;;;;11.60;71.96;100541.26;108898;1279;21988;-79
2023/05/17 04:58:39;;;;;;;17.20;14.50;;;;;;;11.63;72.04;100549.31;108971;1276;22003;-79
2023/05/17 05:01:14;;;;;;;17.60;13.50;;;;;;;11.69;71.98;100551.70;109215;1276;21982;-80
2023/05/17 05:03:50;;;;;;;16.90;13.00;;;;;;;11.70;71.43;100555.48;108592;1282;23079;-78
2023/05/17 05:06:21;;;;;;;17.20;12.30;;;;;;;11.72;71.58;100554.89;108304;1286;22750;-80
2023/05/17 05:08:51;;;;;;;17.50;12.10;;;;;;;11.79;71.46;100559.50;108484;1286;21999;-80
2023/05/17 05:11:24;;;;;;;18.40;11.30;;;;;;;11.85;71.59;100560.31;108419;1286;22021;-79
2023/05/17 05:13:55;;;;;;;12.70;10.20;;;;;;;11.90;71.09;100559.95;108296;1286;21979;-79
2023/05/17 05:16:28;;;;;;;12.00;9.60;;;;;;;11.91;70.99;100561.84;108372;1291;23656;-78
2023/05/17 05:19:01;;;;;;;11.20;8.70;;;;;;;11.92;70.58;100564.92;108064;1288;22003;-79
2023/05/17 05:21:33;;;;;;;13.50;9.80;;;;;;;11.92;70.38;100568.08;108108;1289;23655;-79
2023/05/17 05:24:07;;;;;;;17.80;9.80;;;;;;;11.90;70.15;100573.71;108367;1286;21995;-80
2023/05/17 05:26:45;;;;;;;12.20;9.60;;;;;;;11.90;69.95;100577.21;108331;1289;22798;-79
2023/05/17 05:29:20;;;;;;;12.80;8.50;;;;;;;11.94;69.95;100579.00;107824;1294;23634;-79
2023/05/17 05:31:52;;;;;;;12.00;9.20;;;;;;;11.99;69.61;100578.27;107659;1296;23783;-79
2023/05/17 05:34:30;;;;;;;16.80;9.10;;;;;;;12.00;69.50;100576.84;107979;1292;23634;-80
2023/05/17 05:37:01;;;;;;;16.30;8.90;;;;;;;12.04;69.55;100575.80;108096;1295;23743;-79
2023/05/17 05:39:31;;;;;;;11.90;7.70;;;;;;;12.09;69.18;100570.89;107750;1290;21987;-81
2023/05/17 05:42:02;;;;;;;16.90;9.00;;;;;;;12.14;68.82;100571.39;108137;1286;23117;-81
2023/05/17 05:44:33;;;;;;;14.60;11.00;;;;;;;12.21;68.67;100568.48;108173;1292;22029;-81
2023/05/17 05:47:04;;;;;;;14.00;9.10;;;;;;;12.29;68.63;100572.70;108307;1286;22482;-82
2023/05/17 05:49:34;;;;;;;12.80;7.90;;;;;;;12.39;68.31;100577.84;108677;1282;22004;-85
2023/05/17 05:52:10;;;;;;;10.50;6.80;;;;;;;12.42;67.91;100574.05;108740;1278;22862;-83
2023/05/17 05:54:47;;;;;;;8.90;7.00;;;;;;;12.40;67.39;100565.08;109204;1277;23698;-81
2023/05/17 05:57:17;;;;;;;11.40;7.70;;;;;;;12.39;67.27;100567.77;109190;1278;21932;-84
2023/05/17 05:59:47;;;;;;;8.00;6.20;;;;;;;12.42;67.22;100572.17;109222;1277;21981;-81
2023/05/17 06:02:18;;;;;;;10.20;6.60;;;;;;;12.43;66.79;100571.23;109396;1273;23814;-81
2023/05/17 06:04:56;;;;;;;12.80;5.60;;;;;;;12.45;66.67;100576.89;109026;1277;22787;-77
2023/05/17 06:07:34;;;;;;;14.70;6.40;;;;;;;12.46;66.45;100584.38;108912;1278;21985;-78
2023/05/17 06:10:06;;;;;;;10.00;5.70;;;;;;;12.47;66.19;100587.45;108563;1283;21989;-78
2023/05/17 06:12:40;;;;;;;10.70;5.20;;;;;;;12.48;65.79;100589.70;108552;1283;22601;-76
2023/05/17 06:15:10;;;;;;;10.90;5.60;;;;;;;12.39;65.34;100590.61;108572;1283;22045;-78
2023/05/17 06:17:42;;;;;;;10.20;5.40;;;;;;;12.31;65.02;100597.39;108554;1283;22769;-77
2023/05/17 06:20:19;;;;;;;8.10;4.40;;;;;;;12.23;64.75;100605.04;108603;1283;23711;-75
2023/05/17 06:22:53;;;;;;;8.70;5.10;;;;;;;12.17;64.77;100613.16;108375;1283;21993;-77
2023/05/17 06:25:24;;;;;;;13.80;5.30;;;;;;;12.13;64.56;100620.47;108583;1282;22077;-76
2023/05/17 06:27:54;;;;;;;10.40;4.70;;;;;;;12.09;64.30;100622.70;108708;1282;22000;-82
2023/05/17 06:30:26;;;;;;;11.90;4.90;;;;;;;12.15;64.65;100632.73;108633;1288;23624;-83
2023/05/17 06:33:03;;;;;;;8.60;4.30;;;;;;;12.23;64.54;100639.58;108604;1288;22202;-81
2023/05/17 06:35:35;;;;;;;8.50;4.90;;;;;;;12.30;64.15;100645.78;108801;1282;22366;-84
2023/05/17 06:38:23;;;;;;;13.40;3.80;;;;;;;12.37;63.85;100648.29;108885;1282;22013;-79
2023/05/17 06:41:03;;;;;;;8.40;4.60;;;;;;;12.49;63.67;100650.07;109138;1279;22071;-82
2023/05/17 06:43:43;;;;;;;8.70;4.00;;;;;;;12.61;63.29;100654.45;108745;1285;22017;-82
2023/05/17 06:46:17;;;;;;;7.70;3.90;;;;;;;12.71;62.76;100659.48;108509;1284;23774;-80
2023/05/17 06:48:48;;;;;;;17.20;4.00;;;;;;;12.83;62.23;100668.92;107942;1294;22007;-86
2023/05/17 06:51:20;;;;;;;28.90;5.10;;;;;;;12.95;62.04;100673.11;108197;1292;22078;-83
2023/05/17 06:53:53;;;;;;;8.30;3.80;;;;;;;13.06;61.88;100671.41;107476;1299;22069;-81
2023/05/17 06:56:35;;;;;;;17.50;4.80;;;;;;;13.13;61.76;100672.55;107791;1295;22016;-80
2023/05/17 06:59:13;;;;;;;8.10;4.60;;;;;;;13.23;61.56;100674.18;107816;1295;23795;-80
2023/05/17 07:01:44;;;;;;;10.20;3.80;;;;;;;13.23;60.82;100671.20;107612;1295;22885;-81
2023/05/17 07:04:18;;;;;;;7.60;3.60;;;;;;;13.18;60.39;100668.63;107491;1296;22479;-80
2023/05/17 07:06:50;;;;;;;8.60;3.30;;;;;;;13.16;60.33;100669.25;107955;1291;23011;-79
2023/05/17 07:09:20;;;;;;;33.10;22.30;;;;;;;13.19;60.57;100671.94;107931;1294;23783;-81
2023/05/17 07:11:53;;;;;;;8.80;5.20;;;;;;;13.31;60.60;100677.39;108229;1292;22862;-81
2023/05/17 07:14:40;;;;;;;9.20;4.20;;;;;;;13.38;60.04;100682.67;108194;1292;22003;-80
2023/05/17 07:17:14;;;;;;;8.00;3.40;;;;;;;13.39;59.40;100681.90;108062;1292;22028;-79
2023/05/17 07:19:49;;;;;;;12.40;4.30;;;;;;;13.45;59.49;100683.23;108467;1281;23627;-81
2023/05/17 07:22:23;;;;;;;11.30;4.00;;;;;;;13.57;59.54;100692.29;108926;1278;23041;-80
2023/05/17 07:25:03;;;;;;;7.80;3.00;;;;;;;13.64;59.15;100692.19;109156;1277;21992;-79
2023/05/17 07:27:35;;;;;;;9.90;4.20;;;;;;;13.67;59.09;100690.64;109271;1273;21831;-81
2023/05/17 07:30:25;;;;;;;7.10;3.80;;;;;;;13.74;59.11;100688.75;108943;1279;23081;-81
2023/05/17 07:33:06;;;;;;;7.20;3.50;;;;;;;13.82;58.92;100685.55;108935;1279;24329;-80
2023/05/17 07:35:45;;;;;;;9.30;4.10;;;;;;;13.85;58.66;100687.89;108912;1279;23792;-81
2023/05/17 07:38:24;;;;;;;12.90;4.40;;;;;;;13.92;58.85;100693.89;108875;1279;23082;-80
2023/05/17 07:41:08;;;;;;;;;;;;;;;;;;;;;
2023/05/17 07:43:42;;;;;;;8.80;3.50;;;;;;;14.12;58.64;100700.81;108752;1282;21989;-81
2023/05/17 07:46:12;;;;;;;11.20;3.90;;;;;;;14.17;58.13;100701.98;108413;1288;23783;-82
2023/05/17 07:48:54;;;;;;;9.50;3.70;;;;;;;14.22;58.15;100705.25;108668;1284;22027;-83
2023/05/17 07:51:33;;;;;;;7.10;4.80;;;;;;;14.24;58.07;100704.79;108741;1284;23008;-80
2023/05/17 07:54:08;;;;;;;9.10;4.20;;;;;;;14.20;57.84;100703.94;108479;1288;23725;-81
2023/05/17 07:56:38;;;;;;;12.40;5.00;;;;;;;14.16;57.59;100705.33;108137;1292;22494;-80
2023/05/17 07:59:10;;;;;;;;;;;;;;;14.08;57.55;100705.70;107925;1292;21965;-82
2023/05/17 08:01:46;;;;;;;10.10;4.20;;;;;;;14.01;58.36;100707.45;107883;1293;23778;-81
2023/05/17 08:04:20;;;;;;;;;;;;;;;14.10;58.19;100713.00;108208;1288;23775;-81
2023/05/17 08:06:59;;;;;;;12.80;4.20;;;;;;;14.07;57.99;100710.48;108518;1288;23018;-81
2023/05/17 08:09:36;;;;;;;11.20;3.90;;;;;;;14.04;57.88;100703.96;108437;1288;22025;-82
2023/05/17 08:12:06;;;;;;;8.80;3.90;;;;;;;14.10;57.85;100702.11;108328;1281;23618;-82
2023/05/17 08:14:36;;;;;;;9.40;5.20;;;;;;;14.24;57.78;100704.98;108785;1276;22446;-80
2023/05/17 08:17:06;;;;;;;8.30;4.30;;;;;;;14.38;57.54;100706.44;108499;1282;22060;-79
2023/05/17 08:19:40;;;;;;;8.30;4.50;;;;;;;14.44;56.97;100710.67;108538;1282;22218;-80
2023/05/17 08:22:18;;;;;;;12.10;4.60;;;;;;;14.47;56.55;100709.13;108857;1282;22019;-80
2023/05/17 08:24:54;;;;;;;7.90;4.40;;;;;;;14.50;56.07;100706.57;108775;1281;22009;-82
2023/05/17 08:27:25;;;;;;;12.70;5.80;;;;;;;14.48;55.80;100706.65;108740;1282;21999;-80
2023/05/17 08:30:07;;;;;;;8.30;4.80;;;;;;;14.49;55.39;100709.41;108793;1278;22012;-81
2023/05/17 08:32:48;;;;;;;9.10;4.40;;;;;;;14.50;55.39;100703.36;108826;1282;24330;-80
2023/05/17 08:35:27;;;;;;;7.60;3.60;;;;;;;14.58;55.41;100700.23;108881;1282;21998;-81
2023/05/17 08:38:27;;;;;;;12.90;4.40;;;;;;;14.67;55.30;100699.81;108735;1270;21989;-80
2023/05/17 08:40:59;;;;;;;8.30;4.40;;;;;;;14.80;54.95;100702.13;108704;1282;22065;-80
2023/05/17 08:43:30;;;;;;;10.10;4.70;;;;;;;14.94;54.67;100708.80;108878;1282;22462;-79
2023/05/17 08:46:08;;;;;;;9.90;4.80;;;;;;;15.08;54.58;100704.58;108862;1280;22004;-81
2023/05/17 08:48:42;;;;;;;13.80;5.00;;;;;;;15.23;54.09;100698.88;108772;1286;22006;-83
2023/05/17 08:51:17;;;;;;;12.60;4.60;;;;;;;15.45;54.14;100699.52;108492;1286;22004;-80
2023/05/17 08:53:58;;;;;;;7.40;3.90;;;;;;;15.70;53.95;100707.86;108258;1286;22022;-81
2023/05/17 08:56:32;;;;;;;12.10;4.50;;;;;;;15.97;53.33;100709.94;108589;1286;21993;-80
2023/05/17 08:59:06;;;;;;;9.10;4.40;;;;;;;16.20;52.68;100710.93;108692;1280;22013;-81
2023/05/17 09:01:42;;;;;;;20.00;7.20;;;;;;;16.37;51.81;100712.65;108765;1280;21973;-82
2023/05/17 09:04:18;;;;;;;13.70;5.10;;;;;;;16.44;51.02;100714.33;109074;1280;22152;-81
2023/05/17 09:06:58;;;;;;;15.10;5.50;;;;;;;16.61;50.97;100713.92;108977;1264;21967;-81
2023/05/17 09:09:36;;;;;;;11.90;5.10;;;;;;;16.76;50.36;100715.85;108967;1280;21981;-81
2023/05/17 09:12:19;;;;;;;10.10;4.60;;;;;;;16.87;49.55;100709.96;108904;1280;22457;-80
2023/05/17 09:14:55;;;;;;;79.30;13.20;;;;;;;17.00;49.08;100706.03;108533;1286;23010;-82
2023/05/17 09:17:30;;;;;;;154.60;44.50;;;;;;;17.28;49.02;100699.30;108198;1290;22021;-81
2023/05/17 09:20:03;;;;;;;10.30;5.80;;;;;;;17.60;48.28;100696.67;108410;1290;22076;-80
2023/05/17 09:22:36;;;;;;;9.50;5.20;;;;;;;17.71;47.12;100696.69;108434;1289;22104;-81
2023/05/17 09:25:18;;;;;;;8.90;4.80;;;;;;;17.75;46.86;100694.83;108490;1288;22025;-81
2023/05/17 09:27:53;;;;;;;9.20;4.90;;;;;;;17.79;46.15;100690.20;108665;1284;23101;-81
2023/05/17 09:30:31;;;;;;;18.90;8.90;;;;;;;17.70;45.82;100695.48;108775;1284;22067;-81
2023/05/17 09:33:09;;;;;;;36.10;18.90;;;;;;;17.71;46.44;100692.06;108740;1284;22045;-81
2023/05/17 09:35:53;;;;;;;15.30;5.90;;;;;;;17.76;46.57;100691.80;109032;1279;21996;-81
2023/05/17 09:38:29;;;;;;;10.80;5.20;;;;;;;17.81;46.46;100690.94;109161;1278;22041;-82
2023/05/17 09:41:07;;;;;;;8.50;4.50;;;;;;;17.82;46.23;100692.81;109478;1272;24377;-80
2023/05/17 09:43:41;;;;;;;14.20;4.60;;;;;;;17.72;45.56;100696.59;109605;1272;21977;-81
2023/05/17 09:46:15;;;;;;;11.20;4.70;;;;;;;17.54;45.26;100699.50;109594;1267;23770;-81
2023/05/17 09:48:54;;;;;;;9.40;5.00;;;;;;;17.44;45.66;100694.62;109723;1272;22466;-80
2023/05/17 09:51:39;;;;;;;9.20;4.90;;;;;;;17.37;45.44;100693.29;109224;1279;23068;-81
2023/05/17 09:54:16;;;;;;;10.50;5.00;;;;;;;17.30;45.57;100699.88;109035;1279;22266;-81
2023/05/17 09:57:16;;;;;;;12.60;6.20;;;;;;;17.22;45.55;100707.55;109061;1279;22182;-80
2023/05/17 10:00:08;;;;;;;;;;;;;;;;;;;;;
2023/05/17 10:02:47;;;;;;;7.30;5.20;;;;;;;17.19;46.20;100704.27;109184;1279;22448;-81
2023/05/17 10:05:20;;;;;;;8.10;5.40;;;;;;;17.30;46.08;100702.52;109389;1278;22005;-81
2023/05/17 10:07:55;;;;;;;8.70;5.00;;;;;;;17.39;46.08;100698.31;108987;1282;21777;-81
2023/05/17 10:10:26;;;;;;;9.40;6.00;;;;;;;17.50;45.69;100696.59;109316;1277;22154;-81
2023/05/17 10:13:00;;;;;;;9.80;5.40;;;;;;;17.53;45.24;100701.14;109507;1276;21986;-80
2023/05/17 10:15:35;;;;;;;10.10;4.80;;;;;;;17.56;44.88;100700.20;109619;1276;22029;-81
2023/05/17 10:18:08;;;;;;;9.80;4.90;;;;;;;17.58;44.61;100701.55;109421;1276;22009;-82
2023/05/17 10:21:07;;;;;;;9.50;5.40;;;;;;;17.63;44.77;100706.70;109501;1276;24551;-80
2023/05/17 10:23:55;;;;;;;14.10;5.90;;;;;;;17.69;44.66;100714.06;109459;1276;21995;-83
2023/05/17 10:26:39;;;;;;;11.90;4.90;;;;;;;17.64;44.24;100719.13;109403;1276;22879;-79
2023/05/17 10:29:47;;;;;;;;;;;;;;;;;;;;;
2023/05/17 10:32:51;;;;;;;9.20;5.60;;;;;;;17.26;44.28;100719.44;109802;1272;24420;-83
2023/05/17 10:35:39;;;;;;;16.90;5.50;;;;;;;17.13;44.85;100715.13;109839;1272;23721;-81
2023/05/17 10:38:36;;;;;;;13.20;5.60;;;;;;;17.06;45.20;100714.82;109856;1272;21958;-82
2023/05/17 10:41:39;;;;;;;10.30;4.40;;;;;;;16.99;45.10;100719.33;109719;1272;22442;-82
2023/05/17 10:44:56;;;;;;;14.00;5.70;;;;;;;16.78;45.22;100720.84;109551;1272;23041;-80
2023/05/17 10:48:30;;;;;;;13.60;5.90;;;;;;;16.70;45.70;100724.27;109613;1270;21992;-80
2023/05/17 10:51:35;;;;;;;9.40;5.20;;;;;;;16.57;45.25;100717.30;109609;1272;22076;-79
2023/05/17 10:54:33;;;;;;;12.70;5.40;;;;;;;16.40;45.34;100721.06;109380;1276;22013;-80
2023/05/17 10:57:19;;;;;;;15.60;5.00;;;;;;;16.19;45.25;100721.16;109249;1276;22003;-81
2023/05/17 11:00:20;;;;;;;19.60;6.20;;;;;;;15.95;45.47;100727.37;109235;1276;24317;-81
2023/05/17 11:03:20;;;;;;;11.10;5.60;;;;;;;15.75;45.72;100727.27;108874;1281;22482;-80
2023/05/17 11:06:21;;;;;;;11.20;5.30;;;;;;;15.57;46.03;100728.20;108932;1281;21994;-80
2023/05/17 11:09:17;;;;;;;10.70;5.10;;;;;;;15.39;46.40;100728.75;108658;1283;22151;-81
2023/05/17 11:12:06;;;;;;;36.00;25.10;;;;;;;15.29;46.75;100731.38;108855;1277;22056;-81
2023/05/17 11:14:44;;;;;;;17.60;9.10;;;;;;;15.20;46.77;100732.01;109156;1279;22744;-81
2023/05/17 11:21:16;;;;;;;12.60;5.80;;;;;;;14.95;47.41;100738.68;106682;1254;21879;31
2023/05/17 11:23:56;;;;;;;12.70;5.70;;;;;;;14.89;47.85;100741.27;109328;1276;21993;-82
2023/05/17 11:26:42;;;;;;;12.50;6.60;;;;;;;14.85;47.95;100739.36;109113;1276;21988;-82
2023/05/17 11:29:32;;;;;;;10.10;5.20;;;;;;;14.81;48.08;100742.36;108849;1282;22013;-82
2023/05/17 11:32:28;;;;;;;10.80;6.00;;;;;;;14.71;47.88;100742.66;108770;1282;21999;-84
2023/05/17 11:35:13;;;;;;;11.80;6.30;;;;;;;14.63;48.31;100750.06;108858;1282;22003;-82
2023/05/17 11:37:48;;;;;;;11.80;5.70;;;;;;;14.64;48.50;100750.74;108819;1274;22284;-86
2023/05/17 11:40:31;;;;;;;12.80;6.40;;;;;;;14.62;48.36;100756.05;108782;1282;23123;-83
2023/05/17 11:43:32;;;;;;;13.50;5.60;;;;;;;14.57;48.50;100753.33;108527;1286;23016;-82
2023/05/17 11:46:04;;;;;;;16.20;6.50;;;;;;;14.56;48.58;100752.67;108534;1286;23088;-82
2023/05/17 11:48:37;;;;;;;12.80;5.70;;;;;;;14.60;48.81;100751.28;108918;1281;22123;-83
2023/05/17 11:51:18;;;;;;;13.90;5.60;;;;;;;14.64;48.70;100751.76;108894;1281;22827;-81
2023/05/17 11:54:06;;;;;;;10.70;4.80;;;;;;;14.62;48.60;100753.07;108828;1281;23650;-82
2023/05/17 11:56:44;;;;;;;12.50;6.00;;;;;;;14.60;48.70;100750.92;108639;1284;22009;-82
2023/05/17 11:59:19;;;;;;;18.50;6.60;;;;;;;14.57;48.59;100754.05;108732;1284;22017;-81
2023/05/17 12:01:55;;;;;;;17.00;7.70;;;;;;;14.54;48.92;100749.44;108341;1290;23573;-82
2023/05/17 12:04:27;;;;;;;63.10;16.10;;;;;;;14.55;49.16;100749.55;108258;1290;21857;-81